createdAt,value
2019-03-17T00:01:34.101Z,64.99
2019-03-17T00:04:02.391Z,65.23
2019-03-17T00:06:30.685Z,63.58
2019-03-17T00:08:58.974Z,65.34
2019-03-17T00:11:27.220Z,63.41
2019-03-17T00:13:55.468Z,63.89
2019-03-17T00:16:23.820Z,64.90
2019-03-17T00:18:52.078Z,64.30
2019-03-17T00:21:20.458Z,64.19
2019-03-17T00:23:48.693Z,64.42
2019-03-17T00:26:16.995Z,63.22
2019-03-17T00:28:45.305Z,63.94
2019-03-17T00:31:23.164Z,62.92
2019-03-17T00:33:44.444Z,63.12
2019-03-17T00:36:12.719Z,64.52
2019-03-17T00:38:40.974Z,63.46
2019-03-17T00:41:09.249Z,61.99
2019-03-17T00:43:37.517Z,64.20
2019-03-17T00:46:05.774Z,63.99
2019-03-17T00:48:34.022Z,63.34
2019-03-17T00:51:02.316Z,63.60
2019-03-17T00:53:30.621Z,64.79
2019-03-17T00:55:58.916Z,63.90
2019-03-17T00:58:27.184Z,62.19
2019-03-17T01:00:55.459Z,64.65
2019-03-17T01:03:23.716Z,63.91
2019-03-17T01:05:51.997Z,62.31
2019-03-17T01:08:20.273Z,63.16
2019-03-17T01:10:48.548Z,62.11
2019-03-17T01:13:16.818Z,62.67
2019-03-17T01:15:45.087Z,62.37
2019-03-17T01:18:13.359Z,63.41
2019-03-17T01:20:41.633Z,63.27
2019-03-17T01:23:09.901Z,62.87
2019-03-17T01:25:38.218Z,62.59
2019-03-17T01:28:06.477Z,61.74
2019-03-17T01:30:34.745Z,62.50
2019-03-17T01:33:02.995Z,62.37
2019-03-17T01:35:32.672Z,61.54
2019-03-17T01:38:01.228Z,62.52
2019-03-17T01:40:29.499Z,61.32
2019-03-17T01:42:57.762Z,62.30
2019-03-17T01:45:26.077Z,62.16
2019-03-17T01:47:54.353Z,62.40
2019-03-17T01:50:22.604Z,62.20
2019-03-17T01:52:50.898Z,62.16
2019-03-17T01:55:19.153Z,62.11
2019-03-17T01:57:47.425Z,61.98
2019-03-17T02:00:15.784Z,61.17
2019-03-17T02:02:44.064Z,62.73
2019-03-17T02:05:21.583Z,61.15
2019-03-17T02:07:42.384Z,61.11
2019-03-17T02:10:10.729Z,60.19
2019-03-17T02:12:39.079Z,60.33
2019-03-17T02:15:08.309Z,61.42
2019-03-17T02:17:36.585Z,61.10
2019-03-17T02:20:07.388Z,61.72
2019-03-17T02:22:35.654Z,60.72
2019-03-17T02:25:04.778Z,60.77
2019-03-17T02:27:33.056Z,61.14
2019-03-17T02:30:01.307Z,60.75
2019-03-17T02:32:29.560Z,61.39
2019-03-17T02:34:57.818Z,61.22
2019-03-17T02:37:26.083Z,58.37
2019-03-17T02:39:54.476Z,60.52
2019-03-17T02:42:22.730Z,60.58
2019-03-17T02:44:51.013Z,59.96
2019-03-17T02:47:19.433Z,61.54
2019-03-17T02:49:47.711Z,61.65
2019-03-17T02:52:15.968Z,61.71
2019-03-17T02:54:44.251Z,62.86
2019-03-17T02:57:12.498Z,62.82
2019-03-17T02:59:40.780Z,61.77
2019-03-17T03:02:09.130Z,60.90
2019-03-17T03:04:37.381Z,61.25
2019-03-17T03:07:05.683Z,61.07
2019-03-17T03:09:33.971Z,63.05
2019-03-17T03:12:02.205Z,62.54
2019-03-17T03:14:30.481Z,61.69
2019-03-17T03:16:58.732Z,63.57
2019-03-17T03:19:26.999Z,62.14
2019-03-17T03:21:55.288Z,62.22
2019-03-17T03:24:23.567Z,62.93
2019-03-17T03:26:51.849Z,61.70
2019-03-17T03:29:20.121Z,62.99
2019-03-17T03:31:48.374Z,62.98
2019-03-17T03:34:16.626Z,63.41
2019-03-17T03:36:44.931Z,63.45
2019-03-17T03:39:13.498Z,62.17
2019-03-17T03:41:41.807Z,63.90
2019-03-17T03:44:10.076Z,63.83
2019-03-17T03:46:38.376Z,63.80
2019-03-17T03:49:06.712Z,62.57
2019-03-17T03:51:34.974Z,63.64
2019-03-17T03:54:03.252Z,62.87
2019-03-17T03:56:31.526Z,63.88
2019-03-17T03:58:59.795Z,63.28
2019-03-17T04:01:28.063Z,63.76
2019-03-17T04:03:56.347Z,63.99
2019-03-17T04:06:26.786Z,63.66
2019-03-17T04:08:54.684Z,64.68
2019-03-17T04:11:22.952Z,64.65
2019-03-17T04:13:51.216Z,64.24
2019-03-17T04:16:19.488Z,64.73
2019-03-17T04:18:47.761Z,63.67
2019-03-17T04:21:16.046Z,64.40
2019-03-17T04:23:44.319Z,63.89
2019-03-17T04:26:12.586Z,63.71
2019-03-17T04:28:40.871Z,63.96
2019-03-17T04:31:09.142Z,64.54
2019-03-17T04:33:37.388Z,64.21
2019-03-17T04:36:07.295Z,63.18
2019-03-17T04:38:35.561Z,64.31
2019-03-17T04:41:05.105Z,64.31
2019-03-17T04:43:33.347Z,63.57
2019-03-17T04:46:01.635Z,65.46
2019-03-17T04:48:29.887Z,63.44
2019-03-17T04:50:58.135Z,63.98
2019-03-17T04:53:26.403Z,63.78
2019-03-17T04:55:54.674Z,64.91
2019-03-17T04:58:22.948Z,65.34
2019-03-17T05:00:51.201Z,65.16
2019-03-17T05:03:19.472Z,64.86
2019-03-17T05:05:47.723Z,65.35
2019-03-17T05:08:15.981Z,64.49
2019-03-17T05:10:44.244Z,64.72
2019-03-17T05:13:12.502Z,65.14
2019-03-17T05:15:40.777Z,65.96
2019-03-17T05:18:09.026Z,64.95
2019-03-17T05:20:37.299Z,65.40
2019-03-17T05:23:06.075Z,65.68
2019-03-17T05:25:34.385Z,65.15
2019-03-17T05:28:02.653Z,64.78
2019-03-17T05:30:30.984Z,65.01
2019-03-17T05:32:59.225Z,65.33
2019-03-17T05:35:27.497Z,64.93
2019-03-17T05:37:55.763Z,65.78
2019-03-17T05:40:24.048Z,65.74
2019-03-17T05:42:52.304Z,64.58
2019-03-17T05:45:20.564Z,64.21
2019-03-17T05:47:48.819Z,65.61
2019-03-17T05:50:17.101Z,63.71
2019-03-17T05:52:45.359Z,64.50
2019-03-17T05:55:13.695Z,63.54
2019-03-17T05:57:41.933Z,63.56
2019-03-17T06:00:16.204Z,63.58
2019-03-17T06:02:44.524Z,63.70
2019-03-17T06:05:12.802Z,63.40
2019-03-17T06:07:41.052Z,64.25
2019-03-17T06:10:09.383Z,64.60
2019-03-17T06:12:37.649Z,63.48
2019-03-17T06:15:10.991Z,62.60
2019-03-17T06:17:39.250Z,63.64
2019-03-17T06:20:10.190Z,63.08
2019-03-17T06:22:38.439Z,63.83
2019-03-17T06:25:09.802Z,62.38
2019-03-17T06:27:38.073Z,63.10
2019-03-17T06:30:11.895Z,62.03
2019-03-17T06:32:40.185Z,61.47
2019-03-17T06:35:08.452Z,62.14
2019-03-17T06:37:36.715Z,61.72
2019-03-17T06:40:15.368Z,62.39
2019-03-17T06:42:43.643Z,61.08
2019-03-17T06:45:11.928Z,62.33
2019-03-17T06:47:40.175Z,62.53
2019-03-17T06:50:11.630Z,62.65
2019-03-17T06:52:39.901Z,61.92
2019-03-17T06:55:10.905Z,61.82
2019-03-17T06:57:39.181Z,63.72
2019-03-17T07:00:09.901Z,61.68
2019-03-17T07:02:38.161Z,62.15
2019-03-17T07:05:07.812Z,61.27
2019-03-17T07:07:43.944Z,61.43
2019-03-17T07:10:08.204Z,63.26
2019-03-17T07:12:36.469Z,60.31
2019-03-17T07:15:07.916Z,62.27
2019-03-17T07:17:36.171Z,62.21
2019-03-17T07:20:07.244Z,60.79
2019-03-17T07:22:35.491Z,62.11
2019-03-17T07:25:04.434Z,60.92
2019-03-17T07:27:32.703Z,61.91
2019-03-17T07:30:00.962Z,62.48
2019-03-17T07:32:29.251Z,61.99
2019-03-17T07:34:57.521Z,62.27
2019-03-17T07:37:25.782Z,61.66
2019-03-17T07:39:54.044Z,61.69
2019-03-17T07:42:22.337Z,61.80
2019-03-17T07:44:50.608Z,59.40
2019-03-17T07:47:18.876Z,59.83
2019-03-17T07:49:47.134Z,59.50
2019-03-17T07:52:15.413Z,61.35
2019-03-17T07:54:43.710Z,59.23
2019-03-17T07:57:11.978Z,62.76
2019-03-17T07:59:40.243Z,63.41
2019-03-17T08:02:08.508Z,61.48
2019-03-17T08:04:42.883Z,62.41
2019-03-17T08:07:06.752Z,63.48
2019-03-17T08:09:35.024Z,61.34
2019-03-17T08:12:03.282Z,63.15
2019-03-17T08:14:31.540Z,63.14
2019-03-17T08:16:59.811Z,63.10
2019-03-17T08:19:28.082Z,62.58
2019-03-17T08:21:56.350Z,60.33
2019-03-17T08:24:24.598Z,62.92
2019-03-17T08:26:52.878Z,61.03
2019-03-17T08:29:21.155Z,63.07
2019-03-17T08:31:49.415Z,60.33
2019-03-17T08:34:17.666Z,64.29
2019-03-17T08:36:45.940Z,63.21
2019-03-17T08:39:14.257Z,61.10
2019-03-17T08:41:42.487Z,62.07
2019-03-17T08:44:10.740Z,61.53
2019-03-17T08:46:39.015Z,61.61
2019-03-17T08:49:07.292Z,62.28
2019-03-17T08:51:35.783Z,61.25
2019-03-17T08:54:04.143Z,62.69
2019-03-17T08:56:32.415Z,63.39
2019-03-17T08:59:00.670Z,60.47
2019-03-17T09:01:29.022Z,60.36
2019-03-17T09:03:57.279Z,62.86
2019-03-17T09:06:25.605Z,63.74
2019-03-17T09:08:53.805Z,61.17
2019-03-17T09:11:22.059Z,62.77
2019-03-17T09:13:50.333Z,62.56
2019-03-17T09:16:18.597Z,61.93
2019-03-17T09:18:46.888Z,61.98
2019-03-17T09:21:15.138Z,62.21
2019-03-17T09:23:43.423Z,63.04
2019-03-17T09:26:11.690Z,61.38
2019-03-17T09:28:39.968Z,60.45
2019-03-17T09:31:08.240Z,63.33
2019-03-17T09:33:36.536Z,63.74
2019-03-17T09:36:04.820Z,63.03
2019-03-17T09:38:33.088Z,63.53
2019-03-17T09:41:01.356Z,63.78
2019-03-17T09:43:29.687Z,62.06
2019-03-17T09:45:57.960Z,62.26
2019-03-17T09:48:26.286Z,63.93
2019-03-17T09:50:54.579Z,64.50
2019-03-17T09:53:22.822Z,63.04
2019-03-17T09:55:51.091Z,61.44
2019-03-17T09:58:19.373Z,61.44
2019-03-17T10:00:47.664Z,63.56
2019-03-17T10:03:15.926Z,62.97
2019-03-17T10:05:44.232Z,63.38
2019-03-17T10:08:12.480Z,62.06
2019-03-17T10:10:40.743Z,64.86
2019-03-17T10:13:09.000Z,63.01
2019-03-17T10:15:37.296Z,64.89
2019-03-17T10:18:05.567Z,65.17
2019-03-17T10:20:33.855Z,66.09
2019-03-17T10:23:02.123Z,65.47
2019-03-17T10:25:31.225Z,67.31
2019-03-17T10:27:59.487Z,67.02
2019-03-17T10:30:27.771Z,67.08
2019-03-17T10:32:56.041Z,68.99
2019-03-17T10:35:24.383Z,67.70
2019-03-17T10:37:52.658Z,67.92
2019-03-17T10:40:22.642Z,70.69
2019-03-17T10:42:50.999Z,71.10
2019-03-17T10:45:19.332Z,73.76
2019-03-17T10:47:47.674Z,72.48
2019-03-17T10:50:17.088Z,70.55
2019-03-17T10:52:45.349Z,70.63
2019-03-17T10:55:13.790Z,71.36
2019-03-17T10:57:42.054Z,72.08
2019-03-17T11:00:13.136Z,74.20
2019-03-17T11:02:41.383Z,74.40
2019-03-17T11:05:10.128Z,72.09
2019-03-17T11:07:38.559Z,75.86
2019-03-17T11:10:09.151Z,76.67
2019-03-17T11:12:37.420Z,80.28
2019-03-17T11:15:13.742Z,85.52
2019-03-17T11:17:42.022Z,76.04
2019-03-17T11:20:11.740Z,71.21
2019-03-17T11:22:40.088Z,70.88
2019-03-17T11:25:13.906Z,71.39
2019-03-17T11:27:42.258Z,73.91
2019-03-17T11:30:13.916Z,75.15
2019-03-17T11:32:42.284Z,79.58
2019-03-17T11:35:10.706Z,79.36
2019-03-17T11:37:38.985Z,78.38
2019-03-17T11:40:13.101Z,80.92
2019-03-17T11:42:41.374Z,86.21
2019-03-17T11:45:14.452Z,85.12
2019-03-17T11:47:42.971Z,100.00
2019-03-17T11:50:18.928Z,61.54
2019-03-17T11:52:47.344Z,61.50
2019-03-17T11:55:15.585Z,59.96
2019-03-17T11:57:44.035Z,59.55
2019-03-17T12:00:20.526Z,59.91
2019-03-17T12:02:48.778Z,59.94
2019-03-17T12:05:17.118Z,57.64
2019-03-17T12:07:45.468Z,56.24
2019-03-17T12:10:21.733Z,55.36
2019-03-17T12:12:50.068Z,55.44
2019-03-17T12:15:31.758Z,55.41
2019-03-17T12:18:00.051Z,53.44
2019-03-17T12:20:28.336Z,55.76
2019-03-17T12:22:56.908Z,54.19
2019-03-17T12:25:25.166Z,52.83
2019-03-17T12:27:53.493Z,54.52
2019-03-17T12:30:25.492Z,54.44
2019-03-17T12:32:54.482Z,54.22
2019-03-17T12:35:22.814Z,51.98
2019-03-17T12:37:51.157Z,55.66
2019-03-17T12:40:19.492Z,52.65
2019-03-17T12:42:47.752Z,53.86
2019-03-17T12:45:16.202Z,52.54
2019-03-17T12:47:44.567Z,56.97
2019-03-17T12:50:14.668Z,52.11
2019-03-17T12:52:43.172Z,60.29
2019-03-17T12:55:11.525Z,60.36
2019-03-17T12:57:39.826Z,57.80
2019-03-17T13:00:16.280Z,54.70
2019-03-17T13:02:44.607Z,75.28
2019-03-17T13:05:13.303Z,64.81
2019-03-17T13:07:41.584Z,63.90
2019-03-17T13:10:18.191Z,66.75
2019-03-17T13:12:46.450Z,64.11
2019-03-17T13:15:14.796Z,65.43
2019-03-17T13:17:43.082Z,61.28
2019-03-17T13:20:14.523Z,59.61
2019-03-17T13:22:42.799Z,59.36
2019-03-17T13:25:12.131Z,59.55
2019-03-17T13:27:40.390Z,63.34
2019-03-17T13:30:13.764Z,61.71
2019-03-17T13:32:42.043Z,59.25
2019-03-17T13:35:10.891Z,57.75
2019-03-17T13:37:39.194Z,61.25
2019-03-17T13:40:10.354Z,61.13
2019-03-17T13:42:38.687Z,61.91
2019-03-17T13:45:09.802Z,61.24
2019-03-17T13:47:38.071Z,60.91
2019-03-17T13:50:09.571Z,62.67
2019-03-17T13:52:37.815Z,58.47
2019-03-17T13:55:06.147Z,59.50
2019-03-17T13:57:34.415Z,59.59
2019-03-17T14:00:02.750Z,62.01
2019-03-17T14:02:31.038Z,62.79
2019-03-17T14:04:59.280Z,60.85
2019-03-17T14:07:27.580Z,60.72
2019-03-17T14:09:55.836Z,59.63
2019-03-17T14:12:24.107Z,61.74
2019-03-17T14:14:52.366Z,64.19
2019-03-17T14:17:22.946Z,62.97
2019-03-17T14:19:51.214Z,62.15
2019-03-17T14:22:19.504Z,63.29
2019-03-17T14:24:48.110Z,60.72
2019-03-17T14:27:16.563Z,62.33
2019-03-17T14:29:44.849Z,65.93
2019-03-17T14:32:13.134Z,65.70
2019-03-17T14:34:41.408Z,65.04
2019-03-17T14:37:09.707Z,61.23
2019-03-17T14:39:37.991Z,61.56
2019-03-17T14:42:06.271Z,60.70
2019-03-17T14:44:36.180Z,64.44
2019-03-17T14:47:04.593Z,66.24
2019-03-17T14:49:32.948Z,65.37
2019-03-17T14:52:01.211Z,65.18
2019-03-17T14:54:29.464Z,66.09
2019-03-17T14:56:57.745Z,65.02
2019-03-17T14:59:26.011Z,68.78
2019-03-17T15:01:54.299Z,68.54
2019-03-17T15:04:22.586Z,70.93
2019-03-17T15:06:50.945Z,68.08
2019-03-17T15:09:19.160Z,70.81
2019-03-17T15:11:47.438Z,68.27
2019-03-17T15:14:15.725Z,66.27
2019-03-17T15:16:43.986Z,67.17
2019-03-17T15:19:12.268Z,69.42
2019-03-17T15:21:40.521Z,68.80
2019-03-17T15:24:08.799Z,69.59
2019-03-17T15:26:37.061Z,70.21
2019-03-17T15:29:05.340Z,69.06
2019-03-17T15:31:33.606Z,67.88
2019-03-17T15:34:01.990Z,68.75
2019-03-17T15:36:30.258Z,69.89
2019-03-17T15:38:58.534Z,68.25
2019-03-17T15:41:26.802Z,70.94
2019-03-17T15:43:55.109Z,69.41
2019-03-17T15:46:23.374Z,69.99
2019-03-17T15:48:51.671Z,70.60
2019-03-17T15:51:20.957Z,70.97
2019-03-17T15:53:49.277Z,69.53
2019-03-17T15:56:17.568Z,71.10
2019-03-17T15:58:45.801Z,68.89
2019-03-17T16:01:14.079Z,69.52
2019-03-17T16:03:42.364Z,69.22
2019-03-17T16:06:10.634Z,70.36
2019-03-17T16:08:38.917Z,70.46
2019-03-17T16:11:07.301Z,72.71
2019-03-17T16:13:35.634Z,68.93
2019-03-17T16:16:03.908Z,66.60
2019-03-17T16:18:32.192Z,66.96
2019-03-17T16:21:00.482Z,71.87
2019-03-17T16:23:28.820Z,71.62
2019-03-17T16:25:57.075Z,71.28
2019-03-17T16:28:25.375Z,70.92
2019-03-17T16:30:53.641Z,72.26
2019-03-17T16:33:21.913Z,72.15
2019-03-17T16:35:50.193Z,75.40
2019-03-17T16:38:18.485Z,79.60
2019-03-17T16:40:46.752Z,76.54
2019-03-17T16:43:15.089Z,100.00
2019-03-17T16:45:43.357Z,83.13
2019-03-17T16:48:11.632Z,80.78
2019-03-17T16:50:39.895Z,73.86
2019-03-17T16:53:08.170Z,74.22
2019-03-17T16:55:36.418Z,78.77
2019-03-17T16:58:05.050Z,72.35
2019-03-17T17:00:33.333Z,67.18
2019-03-17T17:03:01.611Z,64.69
2019-03-17T17:05:29.895Z,68.09
2019-03-17T17:07:58.236Z,65.10
2019-03-17T17:10:30.587Z,63.33
2019-03-17T17:12:58.994Z,63.31
2019-03-17T17:15:32.123Z,61.88
2019-03-17T17:18:00.454Z,62.05
2019-03-17T17:20:31.903Z,60.88
2019-03-17T17:23:00.183Z,63.66
2019-03-17T17:25:28.459Z,63.93
2019-03-17T17:27:56.827Z,61.89
2019-03-17T17:30:25.068Z,62.05
2019-03-17T17:32:53.428Z,60.29
2019-03-17T17:35:21.752Z,65.12
2019-03-17T17:37:50.013Z,66.58
2019-03-17T17:40:19.750Z,64.68
2019-03-17T17:42:48.034Z,67.04
2019-03-17T17:45:18.157Z,66.41
2019-03-17T17:47:46.527Z,66.09
2019-03-17T17:50:19.379Z,68.38
2019-03-17T17:52:47.647Z,67.87
2019-03-17T17:55:15.958Z,66.88
2019-03-17T17:57:44.314Z,67.07
2019-03-17T18:00:19.531Z,69.03
2019-03-17T18:02:47.862Z,70.65
2019-03-17T18:05:16.174Z,67.92
2019-03-17T18:07:44.442Z,70.82
2019-03-17T18:10:20.125Z,71.01
2019-03-17T18:12:48.762Z,68.68
2019-03-17T18:15:21.876Z,70.43
2019-03-17T18:17:50.139Z,68.69
2019-03-17T18:20:18.447Z,67.92
2019-03-17T18:22:46.710Z,67.61
2019-03-17T18:25:19.946Z,63.69
2019-03-17T18:27:48.201Z,66.31
2019-03-17T18:30:19.105Z,67.99
2019-03-17T18:32:47.429Z,67.55
2019-03-17T18:35:15.783Z,66.20
2019-03-17T18:37:44.110Z,65.85
2019-03-17T18:40:15.170Z,67.89
2019-03-17T18:42:43.732Z,68.70
2019-03-17T18:45:15.206Z,71.70
2019-03-17T18:47:43.543Z,71.03
2019-03-17T18:50:20.306Z,69.45
2019-03-17T18:52:43.652Z,68.44
2019-03-17T18:55:14.118Z,66.93
2019-03-17T18:57:42.476Z,67.08
2019-03-17T19:00:14.024Z,65.94
2019-03-17T19:02:42.299Z,69.66
2019-03-17T19:05:12.988Z,70.54
2019-03-17T19:07:41.242Z,67.80
2019-03-17T19:10:12.369Z,68.27
2019-03-17T19:12:45.548Z,68.33
2019-03-17T19:15:16.367Z,69.52
2019-03-17T19:17:44.656Z,69.41
2019-03-17T19:20:18.822Z,67.44
2019-03-17T19:22:47.510Z,69.51
2019-03-17T19:25:25.596Z,67.68
2019-03-17T19:27:53.851Z,68.68
2019-03-17T19:30:22.966Z,69.65
2019-03-17T19:32:51.346Z,66.67
2019-03-17T19:35:19.742Z,68.14
2019-03-17T19:37:48.100Z,68.66
2019-03-17T19:40:21.414Z,69.06
2019-03-17T19:42:58.632Z,65.31
2019-03-17T19:45:19.784Z,67.57
2019-03-17T19:47:48.020Z,65.09
2019-03-17T19:50:18.587Z,63.43
2019-03-17T19:52:46.870Z,64.80
2019-03-17T19:55:15.126Z,62.68
2019-03-17T19:57:43.388Z,64.79
2019-03-17T20:00:14.749Z,63.98
2019-03-17T20:02:43.256Z,60.27
2019-03-17T20:05:11.533Z,61.79
2019-03-17T20:07:39.795Z,64.61
2019-03-17T20:10:22.699Z,64.38
2019-03-17T20:12:50.973Z,64.23
2019-03-17T20:15:19.230Z,64.32
2019-03-17T20:17:47.518Z,66.51
2019-03-17T20:20:15.869Z,61.23
2019-03-17T20:22:44.258Z,63.36
2019-03-17T20:25:12.593Z,64.34
2019-03-17T20:27:40.951Z,63.62
2019-03-17T20:30:16.724Z,61.88
2019-03-17T20:32:46.247Z,65.63
2019-03-17T20:35:14.800Z,61.91
2019-03-17T20:37:43.163Z,65.03
2019-03-17T20:40:15.891Z,67.61
2019-03-17T20:42:44.256Z,70.13
2019-03-17T20:45:17.803Z,67.68
2019-03-17T20:47:46.645Z,69.05
2019-03-17T20:50:16.483Z,68.56
2019-03-17T20:52:44.785Z,66.58
2019-03-17T20:55:13.790Z,64.92
2019-03-17T20:57:42.229Z,66.50
2019-03-17T21:00:13.266Z,65.71
2019-03-17T21:02:41.542Z,66.66
2019-03-17T21:05:11.462Z,66.18
2019-03-17T21:07:40.496Z,65.86
2019-03-17T21:10:11.015Z,65.48
2019-03-17T21:12:39.309Z,64.65
2019-03-17T21:15:13.332Z,67.94
2019-03-17T21:17:41.655Z,66.12
2019-03-17T21:20:14.968Z,66.13
2019-03-17T21:22:43.676Z,64.85
2019-03-17T21:25:12.427Z,63.12
2019-03-17T21:27:40.772Z,62.23
2019-03-17T21:30:17.550Z,63.61
2019-03-17T21:32:46.213Z,63.83
2019-03-17T21:35:14.486Z,65.89
2019-03-17T21:37:42.782Z,65.02
2019-03-17T21:40:12.279Z,65.35
2019-03-17T21:42:40.591Z,64.56
2019-03-17T21:45:11.280Z,66.26
2019-03-17T21:47:39.569Z,64.17
2019-03-17T21:50:13.613Z,64.99
2019-03-17T21:52:44.115Z,63.28
2019-03-17T21:55:13.645Z,62.19
2019-03-17T21:57:41.997Z,64.34
2019-03-17T22:00:15.860Z,58.59
2019-03-17T22:02:44.171Z,56.40
2019-03-17T22:05:13.293Z,55.36
2019-03-17T22:07:49.680Z,56.75
2019-03-17T22:10:13.965Z,55.77
2019-03-17T22:12:42.345Z,56.10
2019-03-17T22:15:12.702Z,59.53
2019-03-17T22:17:40.978Z,57.95
2019-03-17T22:20:13.448Z,60.60
2019-03-17T22:22:41.737Z,60.80
2019-03-17T22:25:11.348Z,57.40
2019-03-17T22:27:39.682Z,56.44
2019-03-17T22:30:13.960Z,54.97
2019-03-17T22:32:42.304Z,56.98
2019-03-17T22:35:10.970Z,53.45
2019-03-17T22:37:39.296Z,55.20
2019-03-17T22:40:18.551Z,55.89
2019-03-17T22:42:46.873Z,53.09
2019-03-17T22:45:15.971Z,53.48
2019-03-17T22:47:44.323Z,54.26
2019-03-17T22:50:14.413Z,53.40
2019-03-17T22:52:42.720Z,52.20
2019-03-17T22:55:11.351Z,53.50
2019-03-17T22:57:39.711Z,53.90
2019-03-17T23:00:36.537Z,52.21
2019-03-17T23:03:05.615Z,53.26
2019-03-17T23:05:33.933Z,51.79
2019-03-17T23:08:02.199Z,53.35
2019-03-17T23:10:30.458Z,56.96
2019-03-17T23:12:59.095Z,56.16
2019-03-17T23:15:27.360Z,57.07
2019-03-17T23:17:55.615Z,57.35
2019-03-17T23:20:23.908Z,56.09
2019-03-17T23:22:52.178Z,56.43
2019-03-17T23:25:20.499Z,59.83
2019-03-17T23:27:48.776Z,58.27
2019-03-17T23:30:19.498Z,60.01
2019-03-17T23:32:49.309Z,58.86
2019-03-17T23:35:18.002Z,57.90
2019-03-17T23:37:46.236Z,59.58
2019-03-17T23:40:16.662Z,58.02
2019-03-17T23:42:44.930Z,56.48
2019-03-17T23:45:13.349Z,58.31
2019-03-17T23:47:41.609Z,57.65
2019-03-17T23:50:12.479Z,58.77
2019-03-17T23:52:40.736Z,58.02
2019-03-17T23:55:34.375Z,59.07
2019-03-17T23:58:02.641Z,56.29
